createdAt,value
2022-11-24T00:00:49.650Z,9.40
2022-11-24T00:03:15.853Z,8.45
2022-11-24T00:05:42.111Z,14.00
2022-11-24T00:08:08.292Z,8.27
2022-11-24T00:10:34.472Z,10.10
2022-11-24T00:13:00.660Z,9.63
2022-11-24T00:15:26.839Z,4.97
2022-11-24T00:17:53.002Z,19.95
2022-11-24T00:20:19.114Z,12.20
2022-11-24T00:22:45.296Z,10.70
2022-11-24T00:25:11.421Z,11.27
2022-11-24T00:27:37.541Z,10.23
2022-11-24T00:30:03.690Z,4.65
2022-11-24T00:32:29.831Z,9.95
2022-11-24T00:34:55.959Z,14.85
2022-11-24T00:37:22.103Z,16.65
2022-11-24T00:39:48.271Z,15.48
2022-11-24T00:42:14.405Z,6.93
2022-11-24T00:44:40.524Z,10.93
2022-11-24T00:47:06.804Z,11.18
2022-11-24T00:49:33.080Z,21.70
2022-11-24T00:51:59.231Z,14.43
2022-11-24T00:54:25.363Z,13.13
2022-11-24T00:56:51.528Z,11.82
2022-11-24T00:59:17.692Z,14.65
2022-11-24T01:01:43.927Z,8.48
2022-11-24T01:04:10.176Z,9.93
2022-11-24T01:06:36.297Z,14.40
2022-11-24T01:09:02.437Z,5.82
2022-11-24T01:11:28.598Z,11.77
2022-11-24T01:13:54.736Z,13.02
2022-11-24T01:16:20.960Z,10.40
2022-11-24T01:18:47.102Z,11.48
2022-11-24T01:21:13.238Z,10.50
2022-11-24T01:23:39.407Z,7.75
2022-11-24T01:26:05.526Z,8.30
2022-11-24T01:28:31.656Z,9.07
2022-11-24T01:30:57.822Z,9.65
2022-11-24T01:33:23.991Z,9.10
2022-11-24T01:35:50.125Z,10.23
2022-11-24T01:38:16.248Z,11.43
2022-11-24T01:40:42.415Z,7.45
2022-11-24T01:43:08.566Z,10.38
2022-11-24T01:45:34.738Z,15.38
2022-11-24T01:48:00.909Z,12.05
2022-11-24T01:50:27.224Z,7.53
2022-11-24T01:52:53.356Z,11.43
2022-11-24T01:55:19.510Z,6.25
2022-11-24T01:57:45.710Z,6.75
2022-11-24T02:00:11.883Z,10.52
2022-11-24T02:02:38.045Z,12.93
2022-11-24T02:05:04.209Z,10.93
2022-11-24T02:07:30.386Z,10.32
2022-11-24T02:09:56.569Z,10.00
2022-11-24T02:12:22.739Z,6.05
2022-11-24T02:14:48.862Z,8.52
2022-11-24T02:17:15.026Z,8.07
2022-11-24T02:19:41.155Z,14.98
2022-11-24T02:22:07.281Z,7.38
2022-11-24T02:24:33.640Z,12.60
2022-11-24T02:27:00.015Z,8.68
2022-11-24T02:29:26.147Z,19.25
2022-11-24T02:31:52.458Z,11.70
2022-11-24T02:34:18.643Z,11.48
2022-11-24T02:36:44.758Z,10.20
2022-11-24T02:39:10.932Z,9.93
2022-11-24T02:41:37.041Z,7.82
2022-11-24T02:44:03.209Z,16.85
2022-11-24T02:46:29.418Z,5.35
2022-11-24T02:48:55.565Z,11.80
2022-11-24T02:51:21.714Z,15.30
2022-11-24T02:53:47.835Z,12.77
2022-11-24T02:56:14.006Z,9.32
2022-11-24T02:58:40.116Z,12.10
2022-11-24T03:01:06.367Z,15.40
2022-11-24T03:03:32.567Z,15.23
2022-11-24T03:05:58.719Z,12.30
2022-11-24T03:08:24.855Z,11.65
2022-11-24T03:10:50.970Z,8.63
2022-11-24T03:13:17.126Z,10.82
2022-11-24T03:15:43.337Z,10.82
2022-11-24T03:18:09.478Z,15.48
2022-11-24T03:20:35.647Z,13.63
2022-11-24T03:23:01.798Z,7.18
2022-11-24T03:25:27.963Z,11.38
2022-11-24T03:27:54.110Z,10.80
2022-11-24T03:30:20.227Z,10.63
2022-11-24T03:32:46.349Z,11.98
2022-11-24T03:35:12.491Z,5.90
2022-11-24T03:37:38.618Z,15.73
2022-11-24T03:40:04.761Z,8.40
2022-11-24T03:42:30.893Z,4.78
2022-11-24T03:44:57.041Z,8.25
2022-11-24T03:47:23.150Z,6.35
2022-11-24T03:49:49.278Z,9.93
2022-11-24T03:52:15.417Z,5.70
2022-11-24T03:54:41.569Z,8.48
2022-11-24T03:57:07.683Z,9.52
2022-11-24T03:59:33.823Z,12.02
2022-11-24T04:01:59.985Z,9.45
2022-11-24T04:04:26.157Z,6.15
2022-11-24T04:06:52.305Z,9.57
2022-11-24T04:09:18.453Z,10.02
2022-11-24T04:11:44.611Z,16.48
2022-11-24T04:14:13.777Z,11.20
2022-11-24T04:16:40.147Z,7.40
2022-11-24T04:19:06.309Z,5.60
2022-11-24T04:21:32.475Z,12.48
2022-11-24T04:23:58.623Z,14.70
2022-11-24T04:26:24.756Z,16.55
2022-11-24T04:28:50.893Z,9.18
2022-11-24T04:31:17.065Z,11.55
2022-11-24T04:33:43.223Z,6.07
2022-11-24T04:36:09.348Z,12.63
2022-11-24T04:39:23.849Z,12.32
2022-11-24T04:41:21.600Z,17.88
2022-11-24T04:43:47.739Z,9.50
2022-11-24T04:46:13.896Z,9.73
2022-11-24T04:48:40.086Z,12.75
2022-11-24T04:51:06.223Z,11.85
2022-11-24T04:53:32.349Z,20.83
2022-11-24T04:55:58.491Z,16.77
2022-11-24T04:58:24.668Z,10.52
2022-11-24T05:00:50.785Z,9.07
2022-11-24T05:03:16.894Z,10.32
2022-11-24T05:05:43.042Z,11.55
2022-11-24T05:08:09.167Z,13.50
2022-11-24T05:10:35.346Z,9.07
2022-11-24T05:13:01.468Z,13.85
2022-11-24T05:15:27.654Z,14.00
2022-11-24T05:17:53.857Z,8.52
2022-11-24T05:20:19.970Z,6.35
2022-11-24T05:22:46.154Z,12.10
2022-11-24T05:25:12.331Z,17.95
2022-11-24T05:27:38.503Z,10.55
2022-11-24T05:30:04.670Z,15.25
2022-11-24T05:32:30.862Z,18.02
2022-11-24T05:34:57.027Z,11.00
2022-11-24T05:37:23.182Z,15.18
2022-11-24T05:39:49.317Z,9.70
2022-11-24T05:42:15.514Z,7.93
2022-11-24T05:44:41.691Z,10.25
2022-11-24T05:47:07.903Z,9.35
2022-11-24T05:49:34.134Z,8.10
2022-11-24T05:52:00.302Z,6.95
2022-11-24T05:54:26.445Z,15.20
2022-11-24T05:56:52.571Z,7.63
2022-11-24T05:59:18.759Z,13.68
2022-11-24T06:01:45.131Z,9.00
2022-11-24T06:04:11.386Z,15.10
2022-11-24T06:06:37.515Z,10.65
2022-11-24T06:09:03.628Z,19.15
2022-11-24T06:11:29.767Z,8.40
2022-11-24T06:13:55.953Z,14.50
2022-11-24T06:16:22.409Z,10.75
2022-11-24T06:18:48.617Z,19.35
2022-11-24T06:21:14.795Z,8.73
2022-11-24T06:23:40.924Z,7.57
2022-11-24T06:26:07.075Z,14.25
2022-11-24T06:28:33.304Z,13.73
2022-11-24T06:30:59.546Z,10.95
2022-11-24T06:33:25.696Z,15.43
2022-11-24T06:35:51.880Z,25.35
2022-11-24T06:38:22.938Z,10.90
2022-11-24T06:40:50.455Z,12.15
2022-11-24T06:43:16.613Z,13.80
2022-11-24T06:45:42.878Z,10.52
2022-11-24T06:48:09.049Z,7.85
2022-11-24T06:50:35.154Z,13.75
2022-11-24T06:53:01.334Z,14.10
2022-11-24T06:55:27.454Z,16.02
2022-11-24T06:57:53.636Z,12.85
2022-11-24T07:00:19.808Z,10.27
2022-11-24T07:02:46.309Z,11.48
2022-11-24T07:05:12.601Z,16.45
2022-11-24T07:07:38.876Z,13.68
2022-11-24T07:10:05.047Z,14.15
2022-11-24T07:12:31.227Z,10.52
2022-11-24T07:14:57.395Z,9.32
2022-11-24T07:17:23.506Z,7.53
2022-11-24T07:19:49.695Z,8.40
2022-11-24T07:22:15.843Z,12.40
2022-11-24T07:24:41.973Z,10.35
2022-11-24T07:27:08.124Z,12.25
2022-11-24T07:29:34.271Z,12.52
2022-11-24T07:32:05.305Z,15.30
2022-11-24T07:34:32.205Z,14.40
2022-11-24T07:36:58.593Z,11.88
2022-11-24T07:39:24.758Z,14.02
2022-11-24T07:41:50.937Z,12.63
2022-11-24T07:44:17.065Z,9.65
2022-11-24T07:46:43.213Z,11.30
2022-11-24T07:49:09.351Z,12.55
2022-11-24T07:51:35.489Z,7.65
2022-11-24T07:54:01.616Z,12.88
2022-11-24T07:56:27.736Z,13.50
2022-11-24T07:58:53.881Z,20.00
2022-11-24T08:01:20.130Z,14.13
2022-11-24T08:03:47.842Z,22.02
2022-11-24T08:06:36.271Z,10.70
2022-11-24T08:09:00.206Z,13.15
2022-11-24T08:11:26.355Z,16.13
2022-11-24T08:13:52.495Z,12.50
2022-11-24T08:16:18.766Z,8.60
2022-11-24T08:18:44.971Z,14.43
2022-11-24T08:21:11.104Z,13.80
2022-11-24T08:23:37.319Z,11.15
2022-11-24T08:26:03.496Z,10.40
2022-11-24T08:28:29.614Z,8.73
2022-11-24T08:30:55.810Z,9.95
2022-11-24T08:33:21.980Z,12.40
2022-11-24T08:35:48.171Z,10.00
2022-11-24T08:38:14.299Z,12.60
2022-11-24T08:40:40.448Z,6.40
2022-11-24T08:43:06.586Z,6.38
2022-11-24T08:45:36.770Z,8.77
2022-11-24T08:48:07.191Z,8.50
2022-11-24T08:50:33.392Z,7.93
2022-11-24T08:52:59.522Z,6.88
2022-11-24T08:55:25.643Z,9.02
2022-11-24T08:57:51.804Z,15.55
2022-11-24T09:00:17.963Z,7.28
2022-11-24T09:02:44.140Z,9.18
2022-11-24T09:05:43.346Z,7.22
2022-11-24T09:07:56.528Z,7.85
2022-11-24T09:10:22.750Z,6.03
2022-11-24T09:12:48.897Z,5.35
2022-11-24T09:15:15.040Z,5.85
2022-11-24T09:17:41.465Z,7.97
2022-11-24T09:20:07.627Z,5.40
2022-11-24T09:22:33.788Z,5.32
2022-11-24T09:24:59.916Z,3.55
2022-11-24T09:27:26.099Z,5.03
2022-11-24T09:29:52.247Z,4.63
2022-11-24T09:32:18.443Z,7.70
2022-11-24T09:34:44.631Z,6.47
2022-11-24T09:37:10.804Z,4.68
2022-11-24T09:39:37.125Z,4.32
2022-11-24T09:42:03.325Z,3.42
2022-11-24T09:44:29.513Z,5.80
2022-11-24T09:46:55.806Z,4.00
2022-11-24T09:49:21.993Z,7.20
2022-11-24T09:51:48.144Z,4.90
2022-11-24T09:54:14.351Z,4.70
2022-11-24T09:56:40.477Z,5.57
2022-11-24T09:59:06.615Z,9.65
2022-11-24T10:01:32.850Z,5.70
2022-11-24T10:04:05.686Z,5.15
2022-11-24T10:06:32.647Z,5.47
2022-11-24T10:08:58.755Z,10.52
2022-11-24T10:11:24.913Z,4.35
2022-11-24T10:13:51.038Z,4.57
2022-11-24T10:16:17.259Z,4.95
2022-11-24T10:18:43.509Z,7.72
2022-11-24T10:21:09.683Z,2.53
2022-11-24T10:23:39.740Z,5.85
2022-11-24T10:26:06.019Z,4.45
2022-11-24T10:28:32.223Z,3.42
2022-11-24T10:30:58.492Z,5.68
2022-11-24T10:33:30.388Z,6.45
2022-11-24T10:35:57.136Z,4.82
2022-11-24T10:38:23.254Z,3.15
2022-11-24T10:40:56.958Z,5.65
2022-11-24T10:43:23.786Z,5.18
2022-11-24T10:45:50.006Z,3.00
2022-11-24T10:48:16.154Z,5.95
2022-11-24T10:50:42.281Z,6.10
2022-11-24T10:53:08.415Z,1.95
2022-11-24T10:55:34.535Z,4.80
2022-11-24T10:58:00.692Z,6.35
2022-11-24T11:00:26.855Z,7.65
2022-11-24T11:02:53.025Z,8.73
2022-11-24T11:05:19.211Z,2.40
2022-11-24T11:07:45.411Z,5.80
2022-11-24T11:10:11.615Z,5.03
2022-11-24T11:12:45.334Z,6.78
2022-11-24T11:15:11.619Z,6.93
2022-11-24T11:17:37.795Z,5.78
2022-11-24T11:20:04.539Z,5.15
2022-11-24T11:22:31.000Z,12.10
2022-11-24T11:24:57.115Z,3.72
2022-11-24T11:27:23.312Z,6.93
2022-11-24T11:35:21.808Z,4.38
2022-11-24T11:37:48.010Z,7.43
2022-11-24T11:40:14.150Z,4.28
2022-11-24T11:45:26.498Z,6.75
2022-11-24T11:47:52.788Z,5.38
2022-11-24T11:50:19.004Z,5.63
2022-11-24T11:52:45.365Z,6.47
2022-11-24T11:55:11.525Z,7.47
2022-11-24T11:57:37.652Z,7.63
2022-11-24T12:00:03.817Z,3.58
2022-11-24T12:02:30.166Z,5.38
2022-11-24T12:04:56.386Z,5.50
2022-11-24T12:07:22.585Z,3.65
2022-11-24T12:09:48.810Z,6.32
2022-11-24T12:12:14.963Z,8.02
2022-11-24T12:14:41.136Z,4.28
2022-11-24T12:17:07.313Z,7.22
2022-11-24T12:19:33.795Z,6.82
2022-11-24T12:22:00.259Z,6.95
2022-11-24T12:24:26.504Z,10.77
2022-11-24T12:26:52.647Z,8.13
2022-11-24T12:29:18.844Z,17.30
2022-11-24T12:31:45.121Z,3.75
2022-11-24T12:34:11.297Z,6.55
2022-11-24T12:36:37.491Z,4.68
2022-11-24T12:39:03.618Z,5.97
2022-11-24T12:41:45.219Z,5.18
2022-11-24T12:44:11.468Z,4.97
2022-11-24T12:46:37.732Z,4.65
2022-11-24T12:49:03.874Z,4.82
2022-11-24T12:51:30.024Z,6.93
2022-11-24T12:53:56.215Z,7.53
2022-11-24T12:56:22.375Z,9.88
2022-11-24T12:58:48.547Z,7.85
2022-11-24T13:01:16.719Z,4.50
2022-11-24T13:03:43.314Z,8.18
2022-11-24T13:06:09.528Z,6.32
2022-11-24T13:08:35.660Z,5.72
2022-11-24T13:11:01.848Z,7.80
2022-11-24T13:13:28.003Z,10.63
2022-11-24T13:16:28.450Z,8.35
2022-11-24T13:18:40.386Z,5.28
2022-11-24T13:21:06.626Z,10.40
2022-11-24T13:23:32.763Z,10.93
2022-11-24T13:25:58.911Z,12.32
2022-11-24T13:28:53.941Z,5.60
2022-11-24T13:31:11.276Z,5.85
2022-11-24T13:33:37.492Z,5.97
2022-11-24T13:36:03.633Z,10.52
2022-11-24T13:38:29.837Z,7.65
2022-11-24T13:41:20.963Z,8.52
2022-11-24T13:43:42.168Z,5.97
2022-11-24T13:46:08.410Z,10.07
2022-11-24T13:48:34.542Z,9.05
2022-11-24T13:51:00.727Z,10.43
2022-11-24T13:53:26.943Z,5.30
2022-11-24T13:55:53.139Z,9.27
2022-11-24T13:58:19.270Z,9.73
2022-11-24T14:00:45.385Z,8.65
2022-11-24T14:03:11.634Z,12.68
2022-11-24T14:05:37.879Z,9.70
2022-11-24T14:08:04.172Z,9.82
2022-11-24T14:10:30.400Z,6.55
2022-11-24T14:12:56.534Z,9.30
2022-11-24T14:15:22.695Z,7.50
2022-11-24T14:17:48.836Z,6.05
2022-11-24T14:20:15.019Z,11.18
2022-11-24T14:22:41.193Z,6.97
2022-11-24T14:25:07.357Z,10.48
2022-11-24T14:27:33.570Z,9.85
2022-11-24T14:29:59.747Z,10.23
2022-11-24T14:32:25.916Z,9.43
2022-11-24T14:34:52.309Z,12.45
2022-11-24T14:37:18.530Z,10.82
2022-11-24T14:39:44.682Z,9.32
2022-11-24T14:42:10.828Z,6.10
2022-11-24T14:44:37.121Z,11.68
2022-11-24T14:47:03.458Z,10.18
2022-11-24T14:49:29.706Z,5.88
2022-11-24T14:51:55.837Z,12.23
2022-11-24T14:54:21.972Z,14.05
2022-11-24T14:56:48.126Z,12.88
2022-11-24T14:59:14.264Z,11.40
2022-11-24T15:01:40.504Z,8.57
2022-11-24T15:04:09.872Z,7.75
2022-11-24T15:06:37.883Z,8.93
2022-11-24T15:09:03.984Z,10.60
2022-11-24T15:11:30.114Z,7.38
2022-11-24T15:13:56.286Z,10.05
2022-11-24T15:16:22.457Z,9.27
2022-11-24T15:18:48.694Z,13.00
2022-11-24T15:21:19.217Z,11.27
2022-11-24T15:23:45.768Z,6.25
2022-11-24T15:26:11.931Z,11.38
2022-11-24T15:28:38.081Z,9.48
2022-11-24T15:31:04.363Z,10.55
2022-11-24T15:33:30.586Z,10.88
2022-11-24T15:35:56.763Z,10.98
2022-11-24T15:38:22.944Z,13.75
2022-11-24T15:40:49.139Z,11.98
2022-11-24T15:43:15.305Z,7.45
2022-11-24T15:45:41.523Z,14.55
2022-11-24T15:48:07.705Z,14.75
2022-11-24T15:50:33.933Z,20.17
2022-11-24T15:53:00.049Z,14.38
2022-11-24T15:55:26.192Z,14.30
2022-11-24T15:57:52.318Z,7.78
2022-11-24T16:00:18.522Z,11.40
2022-11-24T16:02:44.693Z,16.70
2022-11-24T16:05:10.834Z,9.70
2022-11-24T16:07:37.057Z,11.18
2022-11-24T16:10:03.344Z,22.27
2022-11-24T16:12:29.513Z,33.65
2022-11-24T16:14:55.676Z,16.70
2022-11-24T16:17:21.868Z,19.38
2022-11-24T16:19:53.319Z,24.35
2022-11-24T16:22:26.292Z,14.10
2022-11-24T16:24:52.496Z,9.13
2022-11-24T16:27:18.663Z,9.23
2022-11-24T16:29:44.844Z,9.77
2022-11-24T16:32:10.989Z,10.85
2022-11-24T16:34:37.387Z,10.98
2022-11-24T16:37:03.714Z,12.48
2022-11-24T16:39:29.832Z,12.70
2022-11-24T16:41:56.013Z,15.50
2022-11-24T16:44:22.158Z,15.65
2022-11-24T16:46:48.344Z,11.77
2022-11-24T16:49:14.512Z,9.52
2022-11-24T16:51:40.778Z,9.27
2022-11-24T16:54:06.934Z,9.05
2022-11-24T16:56:33.076Z,12.00
2022-11-24T16:58:59.197Z,17.85
2022-11-24T17:01:25.384Z,10.10
2022-11-24T17:03:51.584Z,12.27
2022-11-24T17:06:17.709Z,9.85
2022-11-24T17:08:43.857Z,11.68
2022-11-24T17:11:10.049Z,19.35
2022-11-24T17:13:36.213Z,14.07
2022-11-24T17:16:02.391Z,16.52
2022-11-24T17:18:28.537Z,13.23
2022-11-24T17:20:54.722Z,16.63
2022-11-24T17:23:20.858Z,28.13
2022-11-24T17:25:47.024Z,10.23
2022-11-24T17:28:13.160Z,10.95
2022-11-24T17:30:39.364Z,16.15
2022-11-24T17:33:05.495Z,14.68
2022-11-24T17:35:31.629Z,14.52
2022-11-24T17:37:57.783Z,15.55
2022-11-24T17:40:28.787Z,16.88
2022-11-24T17:45:21.558Z,15.13
2022-11-24T17:47:47.707Z,10.75
2022-11-24T17:50:13.847Z,20.33
2022-11-24T17:52:39.959Z,22.80
2022-11-24T17:55:06.168Z,12.68
2022-11-24T17:57:32.314Z,10.82
2022-11-24T17:59:58.465Z,17.77
2022-11-24T18:02:24.725Z,15.52
2022-11-24T18:04:50.928Z,15.55
2022-11-24T18:07:17.100Z,16.50
2022-11-24T18:09:43.318Z,18.02
2022-11-24T18:12:09.465Z,16.63
2022-11-24T18:14:35.769Z,11.15
2022-11-24T18:17:02.189Z,19.60
2022-11-24T18:19:28.387Z,12.77
2022-11-24T18:21:54.678Z,9.73
2022-11-24T18:24:24.090Z,16.88
2022-11-24T18:26:50.550Z,14.90
2022-11-24T18:29:16.704Z,18.15
2022-11-24T18:31:42.910Z,14.57
2022-11-24T18:34:09.070Z,21.83
2022-11-24T18:36:35.255Z,14.43
2022-11-24T18:39:01.394Z,12.73
2022-11-24T18:41:28.111Z,14.52
2022-11-24T18:43:54.261Z,16.95
2022-11-24T18:46:20.518Z,28.42
2022-11-24T18:48:46.722Z,13.65
2022-11-24T18:51:12.933Z,22.33
2022-11-24T18:53:39.115Z,18.27
2022-11-24T18:56:05.328Z,17.98
2022-11-24T18:58:31.728Z,24.65
2022-11-24T19:00:58.007Z,31.23
2022-11-24T19:03:24.216Z,30.17
2022-11-24T19:05:50.870Z,29.27
2022-11-24T19:08:17.066Z,22.67
2022-11-24T19:10:43.293Z,23.75
2022-11-24T19:13:09.605Z,20.75
2022-11-24T19:15:35.800Z,21.30
2022-11-24T19:18:02.134Z,20.70
2022-11-24T19:20:28.411Z,20.25
2022-11-24T19:22:54.538Z,17.33
2022-11-24T19:25:20.695Z,16.63
2022-11-24T19:27:46.960Z,25.23
2022-11-24T19:30:13.150Z,18.00
2022-11-24T19:32:39.358Z,40.63
2022-11-24T19:35:05.790Z,24.38
2022-11-24T19:37:32.007Z,28.58
2022-11-24T19:39:58.187Z,25.70
2022-11-24T19:42:24.355Z,23.52
2022-11-24T19:44:56.206Z,22.33
2022-11-24T19:47:22.948Z,23.10
2022-11-24T19:49:49.169Z,16.35
2022-11-24T19:52:15.416Z,18.23
2022-11-24T19:54:41.613Z,18.05
2022-11-24T19:57:07.830Z,19.50
2022-11-24T19:59:34.000Z,22.95
2022-11-24T20:02:00.292Z,25.65
2022-11-24T20:04:26.594Z,23.27
2022-11-24T20:06:52.715Z,15.88
2022-11-24T20:09:18.893Z,13.07
2022-11-24T20:11:45.126Z,13.40
2022-11-24T20:14:11.334Z,19.75
2022-11-24T20:16:37.618Z,22.35
2022-11-24T20:19:03.792Z,16.33
2022-11-24T20:21:29.988Z,18.83
2022-11-24T20:23:56.186Z,17.13
2022-11-24T20:26:22.376Z,15.13
2022-11-24T20:28:48.586Z,18.75
2022-11-24T20:31:14.842Z,14.30
2022-11-24T20:33:41.119Z,20.67
2022-11-24T20:36:07.258Z,17.70
2022-11-24T20:38:33.426Z,18.52
2022-11-24T20:41:02.480Z,15.80
2022-11-24T20:43:30.776Z,16.73
2022-11-24T20:45:57.103Z,12.68
2022-11-24T20:48:23.272Z,18.02
2022-11-24T20:50:51.442Z,25.83
2022-11-24T20:53:18.078Z,34.28
2022-11-24T20:55:44.412Z,22.00
2022-11-24T20:58:10.588Z,22.45
2022-11-24T21:00:36.738Z,21.75
2022-11-24T21:03:03.249Z,20.33
2022-11-24T21:05:29.464Z,13.40
2022-11-24T21:07:55.697Z,13.25
2022-11-24T21:10:22.096Z,18.67
2022-11-24T21:12:48.259Z,12.75
2022-11-24T21:15:14.432Z,12.35
2022-11-24T21:17:40.664Z,12.35
2022-11-24T21:20:06.883Z,9.68
2022-11-24T21:22:33.097Z,11.30
2022-11-24T21:24:59.320Z,19.05
2022-11-24T21:27:25.510Z,12.52
2022-11-24T21:29:51.674Z,14.10
2022-11-24T21:32:18.226Z,12.27
2022-11-24T21:34:44.460Z,22.45
2022-11-24T21:37:10.713Z,29.67
2022-11-24T21:39:37.069Z,30.92
2022-11-24T21:42:03.232Z,19.67
2022-11-24T21:44:29.344Z,18.00
2022-11-24T21:46:56.212Z,10.40
2022-11-24T21:49:22.553Z,8.80
2022-11-24T21:51:48.697Z,12.35
2022-11-24T21:54:14.888Z,15.98
2022-11-24T21:56:41.091Z,9.63
2022-11-24T21:59:07.305Z,15.95
2022-11-24T22:01:33.607Z,13.35
2022-11-24T22:03:59.869Z,11.77
2022-11-24T22:06:26.038Z,14.52
2022-11-24T22:08:52.217Z,7.95
2022-11-24T22:11:18.380Z,7.68
2022-11-24T22:13:44.541Z,13.00
2022-11-24T22:16:10.704Z,9.25
2022-11-24T22:18:36.932Z,12.00
2022-11-24T22:21:03.071Z,12.13
2022-11-24T22:23:29.224Z,9.25
2022-11-24T22:25:55.388Z,12.70
2022-11-24T22:28:21.604Z,17.63
2022-11-24T22:30:47.754Z,13.10
2022-11-24T22:33:13.954Z,11.93
2022-11-24T22:35:40.265Z,14.88
2022-11-24T22:38:06.476Z,16.48
2022-11-24T22:40:32.682Z,10.73
2022-11-24T22:42:58.799Z,13.00
2022-11-24T22:45:25.068Z,15.13
2022-11-24T22:47:51.331Z,9.50
2022-11-24T22:50:17.497Z,11.23
2022-11-24T22:52:43.668Z,12.05
2022-11-24T22:55:09.864Z,15.57
2022-11-24T22:57:35.995Z,13.13
2022-11-24T23:00:02.197Z,14.15
2022-11-24T23:02:28.524Z,10.68
2022-11-24T23:04:54.759Z,14.32
2022-11-24T23:07:20.998Z,15.65
2022-11-24T23:09:47.226Z,12.82
2022-11-24T23:12:13.413Z,12.23
2022-11-24T23:14:39.561Z,14.95
2022-11-24T23:17:05.735Z,12.88
2022-11-24T23:19:31.915Z,14.40
2022-11-24T23:21:58.137Z,10.25
2022-11-24T23:24:24.349Z,16.98
2022-11-24T23:26:50.468Z,8.90
2022-11-24T23:29:16.610Z,12.65
2022-11-24T23:31:42.801Z,9.32
2022-11-24T23:34:09.069Z,8.73
2022-11-24T23:36:35.196Z,16.25
2022-11-24T23:39:01.399Z,11.90
2022-11-24T23:41:27.622Z,17.30
2022-11-24T23:43:53.805Z,14.73
2022-11-24T23:46:19.975Z,16.27
2022-11-24T23:48:46.141Z,9.88
2022-11-24T23:51:12.291Z,15.10
2022-11-24T23:53:38.421Z,9.43
2022-11-24T23:56:04.616Z,14.43
2022-11-24T23:58:30.727Z,12.55
